Time;durP1;ratioP1;P1;durP2;ratioP2;P2;SDS_P1;SDS_P2;PMS_P1;PMS_P2;Temp;Humidity;BMP_temperature;BMP_pressure;BME280_temperature;BME280_humidity;BME280_pressure;Samples;Min_cycle;Max_cycle;Signal;HPM_P1;HPM_P2
2023/10/06 00:00:35;;;;;;;;;;;;;;;22.34;39.76;100719.84;4464232;32;34893;-71
2023/10/06 00:03:06;;;;;;;;;;;;;;;22.37;39.35;100713.75;4471027;32;34251;-70
2023/10/06 00:05:33;;;;;;;;;;;;;;;22.60;38.83;100715.72;4480166;32;34278;-73
2023/10/06 00:08:04;;;;;;;;;;;;;;;22.84;38.41;100715.97;4477543;32;33565;-71
2023/10/06 00:10:32;;;;;;;;;;;;;;;22.63;38.87;100729.84;4461116;32;34333;-71
2023/10/06 00:12:59;;;;;;;;;;;;;;;22.48;39.10;100732.31;4473441;32;33553;-71
2023/10/06 00:15:38;;;;;;;;;;;;;;;22.39;39.19;100722.56;4471526;32;34012;-73
2023/10/06 00:18:16;;;;;;;;;;;;;;;22.43;39.24;100720.84;4477012;32;33454;-74
2023/10/06 00:20:57;;;;;;;;;;;;;;;22.33;39.52;100717.22;4469520;32;32467;-71
2023/10/06 00:23:30;;;;;;;;;;;;;;;22.27;39.80;100727.69;4475009;32;34280;-71
2023/10/06 00:25:58;;;;;;;;;;;;;;;22.33;39.58;100725.13;4474030;32;33434;-71
2023/10/06 00:28:26;;;;;;;;;;;;;;;22.02;40.03;100727.38;4472433;32;33192;-71
2023/10/06 00:30:57;;;;;;;;;;;;;;;22.03;40.26;100729.13;4470598;32;34896;-72
2023/10/06 00:33:32;;;;;;;;;;;;;;;21.55;40.94;100727.56;4468084;32;35374;-72
2023/10/06 00:39:11;;;;;;;;;;;;;;;22.07;40.02;100727.41;4463381;32;34135;-72
2023/10/06 00:41:43;;;;;;;;;;;;;;;22.51;38.99;100722.69;4475192;32;34071;-73
2023/10/06 00:44:11;;;;;;;;;;;;;;;22.25;39.44;100729.41;4471634;32;33646;-72
2023/10/06 00:46:41;;;;;;;;;;;;;;;22.36;38.96;100730.44;4472431;32;33779;-72
2023/10/06 00:49:09;;;;;;;;;;;;;;;22.27;38.99;100733.88;4456129;32;34141;-73
2023/10/06 00:51:41;;;;;;;;;;;;;;;22.09;39.29;100734.47;4469681;32;34113;-73
2023/10/06 00:54:08;;;;;;;;;;;;;;;22.10;39.17;100733.62;4472291;32;33854;-72
2023/10/06 00:56:35;;;;;;;;;;;;;;;22.08;39.09;100732.72;4473584;32;35002;-72
2023/10/06 00:59:06;;;;;;;;;;;;;;;22.10;38.82;100728.34;4468086;32;33576;-70
2023/10/06 01:01:34;;;;;;;;;;;;;;;21.92;39.10;100730.72;4471632;32;34729;-74
2023/10/06 01:04:08;;;;;;;;;;;;;;;22.12;38.60;100723.97;4455578;32;34121;-72
2023/10/06 01:06:37;;;;;;;;;;;;;;;22.14;38.43;100726.62;4469098;32;34053;-73
2023/10/06 01:11:43;;;;;;;;;;;;;;;22.08;38.41;100730.06;4473096;32;34886;-73
2023/10/06 01:14:11;;;;;;;;;;;;;;;21.95;38.67;100725.50;4472401;32;32608;-70
2023/10/06 01:16:39;;;;;;;;;;;;;;;21.92;38.84;100722.81;4466277;32;32510;-74
2023/10/06 01:21:54;;;;;;;;;;;;;;;21.62;39.80;100721.53;4475990;32;34283;-72
2023/10/06 01:24:25;;;;;;;;;;;;;;;21.64;39.66;100719.81;4474339;32;34251;-73
2023/10/06 01:27:06;;;;;;;;;;;;;;;21.87;39.05;100721.87;4473727;32;33599;-71
2023/10/06 01:29:34;;;;;;;;;;;;;;;21.83;38.99;100726.22;4473104;32;33553;-71
2023/10/06 01:32:04;;;;;;;;;;;;;;;21.68;39.24;100726.91;4478220;32;33968;-74
2023/10/06 01:34:38;;;;;;;;;;;;;;;21.64;39.27;100734.75;4478328;32;34276;-72
2023/10/06 01:37:07;;;;;;;;;;;;;;;21.63;39.33;100733.84;4476103;32;34772;-72
2023/10/06 01:39:35;;;;;;;;;;;;;;;21.60;39.36;100737.34;4477068;32;33374;-73
2023/10/06 01:42:04;;;;;;;;;;;;;;;21.34;39.93;100747.47;4475561;32;33512;-73
2023/10/06 01:44:34;;;;;;;;;;;;;;;21.30;40.23;100745.59;4480269;32;34167;-70
2023/10/06 01:47:05;;;;;;;;;;;;;;;21.25;40.43;100747.31;4462453;32;33554;-70
2023/10/06 01:49:33;;;;;;;;;;;;;;;21.37;40.13;100746.63;4473030;32;33174;-73
2023/10/06 01:52:02;;;;;;;;;;;;;;;21.48;39.82;100741.53;4473886;32;34035;-73
2023/10/06 01:54:36;;;;;;;;;;;;;;;21.73;39.23;100745.41;4480990;32;34946;-72
2023/10/06 01:57:04;;;;;;;;;;;;;;;21.58;39.42;100752.25;4470642;32;34572;-73
2023/10/06 01:59:31;;;;;;;;;;;;;;;21.68;38.98;100742.72;4472790;32;34206;-71
2023/10/06 02:02:02;;;;;;;;;;;;;;;21.44;39.28;100753.78;4480270;32;34116;-71
2023/10/06 02:04:40;;;;;;;;;;;;;;;21.35;39.33;100758.87;4479476;32;33987;-72
2023/10/06 02:07:10;;;;;;;;;;;;;;;21.22;39.47;100768.31;4476230;32;34443;-71
2023/10/06 02:09:39;;;;;;;;;;;;;;;21.43;38.86;100766.91;4481776;32;33309;-73
2023/10/06 02:12:06;;;;;;;;;;;;;;;21.47;38.60;100769.63;4470388;32;33912;-70
2023/10/06 02:14:34;;;;;;;;;;;;;;;21.64;38.30;100769.91;4482510;32;35012;-72
2023/10/06 02:17:11;;;;;;;;;;;;;;;21.49;38.45;100772.31;4457175;32;34644;-70
2023/10/06 02:19:41;;;;;;;;;;;;;;;21.92;37.64;100767.66;4479644;32;33716;-69
2023/10/06 02:22:10;;;;;;;;;;;;;;;21.56;38.29;100763.63;4473610;32;33733;-70
2023/10/06 02:24:38;;;;;;;;;;;;;;;21.62;38.20;100763.72;4482435;32;34039;-74
2023/10/06 02:27:06;;;;;;;;;;;;;;;21.43;38.60;100761.63;4462299;32;33729;-71
2023/10/06 02:29:33;;;;;;;;;;;;;;;21.20;39.02;100764.78;4471526;32;32940;-70
2023/10/06 02:32:01;;;;;;;;;;;;;;;21.24;39.07;100771.00;4476174;32;34869;-72
2023/10/06 02:34:29;;;;;;;;;;;;;;;21.50;38.54;100763.50;4477502;32;34232;-70
2023/10/06 02:36:57;;;;;;;;;;;;;;;21.57;38.35;100765.41;4468630;32;34974;-73
2023/10/06 02:39:31;;;;;;;;;;;;;;;21.58;38.25;100775.09;4474595;32;33473;-70
2023/10/06 02:42:07;;;;;;;;;;;;;;;21.54;38.32;100771.53;4469675;32;34317;-72
2023/10/06 02:44:38;;;;;;;;;;;;;;;21.35;38.68;100777.31;4479949;32;33911;-71
2023/10/06 02:47:09;;;;;;;;;;;;;;;21.25;38.85;100783.28;4466931;32;34193;-71
2023/10/06 02:49:40;;;;;;;;;;;;;;;21.55;38.23;100773.28;4455789;32;33076;-71
2023/10/06 02:52:21;;;;;;;;;;;;;;;21.68;37.89;100777.00;4473177;32;34718;-73
2023/10/06 02:57:36;;;;;;;;;;;;;;;21.52;38.04;100769.72;4470301;32;33711;-73
2023/10/06 03:03:02;;;;;;;;;;;;;;;21.13;38.75;100778.69;4482089;32;34239;-72
2023/10/06 03:05:33;;;;;;;;;;;;;;;21.07;38.74;100789.13;4472910;32;33926;-73
2023/10/06 03:08:01;;;;;;;;;;;;;;;21.27;38.47;100787.75;4471769;32;34249;-74
2023/10/06 03:10:35;;;;;;;;;;;;;;;21.20;38.58;100781.47;4471104;32;33272;-70
2023/10/06 03:13:03;;;;;;;;;;;;;;;21.20;38.73;100785.84;4469174;32;33852;-72
2023/10/06 03:15:36;;;;;;;;;;;;;;;21.17;38.72;100786.69;4454248;32;34841;-74
2023/10/06 03:18:06;;;;;;;;;;;;;;;21.23;38.45;100790.28;4475200;32;34186;-74
2023/10/06 03:20:46;;;;;;;;;;;;;;;21.23;38.50;100780.66;4473829;32;33277;-74
2023/10/06 03:23:24;;;;;;;;;;;;;;;21.24;38.56;100787.69;4475650;32;34791;-71
2023/10/06 03:25:54;;;;;;;;;;;;;;;21.43;38.25;100772.19;4470845;32;34281;-72
2023/10/06 03:28:26;;;;;;;;;;;;;;;21.32;38.37;100786.06;4467928;32;34023;-73
2023/10/06 03:30:53;;;;;;;;;;;;;;;21.52;37.84;100772.37;4468375;32;33219;-71
2023/10/06 03:33:23;;;;;;;;;;;;;;;21.14;38.48;100781.38;4476869;32;35061;-72
2023/10/06 03:35:54;;;;;;;;;;;;;;;21.66;37.50;100781.34;4469463;32;34127;-73
2023/10/06 03:46:24;;;;;;;;;;;;;;;21.90;37.01;100774.66;4429705;32;33578;-71
2023/10/06 03:48:52;;;;;;;;;;;;;;;21.67;37.44;100783.16;4466344;32;34178;-70
2023/10/06 03:51:19;;;;;;;;;;;;;;;21.65;37.52;100774.28;4474563;32;34188;-73
2023/10/06 03:53:48;;;;;;;;;;;;;;;21.62;37.54;100784.81;4471071;32;34856;-70
2023/10/06 03:56:16;;;;;;;;;;;;;;;21.61;37.53;100783.03;4479784;32;34292;-73
2023/10/06 03:58:44;;;;;;;;;;;;;;;21.53;37.71;100785.53;4481091;32;34686;-73
2023/10/06 04:01:16;;;;;;;;;;;;;;;21.80;37.14;100785.06;4475062;32;33318;-72
2023/10/06 04:03:43;;;;;;;;;;;;;;;21.84;36.97;100777.22;4479584;32;33643;-71
2023/10/06 04:06:15;;;;;;;;;;;;;;;22.27;36.26;100777.81;4473351;32;33986;-72
2023/10/06 04:08:46;;;;;;;;;;;;;;;22.37;35.87;100771.81;4477525;32;33471;-72
2023/10/06 04:11:15;;;;;;;;;;;;;;;21.83;37.06;100772.78;4471431;32;33785;-71
2023/10/06 04:13:43;;;;;;;;;;;;;;;21.93;36.69;100775.59;4461841;32;32697;-71
2023/10/06 04:16:13;;;;;;;;;;;;;;;21.76;36.94;100783.25;4472598;32;33313;-72
2023/10/06 04:18:47;;;;;;;;;;;;;;;21.86;36.75;100778.12;4465852;32;34559;-71
2023/10/06 04:21:15;;;;;;;;;;;;;;;22.07;36.55;100780.19;4466183;32;34273;-73
2023/10/06 04:23:43;;;;;;;;;;;;;;;21.31;38.12;100789.56;4461822;32;33765;-73
2023/10/06 04:26:11;;;;;;;;;;;;;;;21.32;37.63;100783.41;4444104;32;32229;-71
2023/10/06 04:28:38;;;;;;;;;;;;;;;21.31;37.94;100781.66;4469376;32;35307;-73
2023/10/06 04:31:06;;;;;;;;;;;;;;;21.52;37.58;100788.19;4473019;32;33955;-72
2023/10/06 04:33:33;;;;;;;;;;;;;;;21.59;37.44;100782.13;4473171;32;34859;-73
2023/10/06 04:36:07;;;;;;;;;;;;;;;21.49;37.62;100789.00;4479795;32;34370;-72
2023/10/06 04:38:37;;;;;;;;;;;;;;;21.47;37.46;100787.22;4475188;32;33696;-72
2023/10/06 04:41:07;;;;;;;;;;;;;;;21.46;37.88;100788.06;4472752;32;34056;-74
2023/10/06 04:43:36;;;;;;;;;;;;;;;21.48;37.77;100787.25;4445230;32;34204;-73
2023/10/06 04:46:05;;;;;;;;;;;;;;;21.96;36.73;100780.94;4472530;32;34893;-73
2023/10/06 04:48:35;;;;;;;;;;;;;;;21.45;37.73;100791.56;4475130;32;33557;-71
2023/10/06 04:51:05;;;;;;;;;;;;;;;21.36;37.82;100790.53;4459323;32;33193;-73
2023/10/06 04:53:35;;;;;;;;;;;;;;;21.09;38.20;100792.69;4446042;32;35071;-71
2023/10/06 04:56:05;;;;;;;;;;;;;;;21.46;37.74;100798.59;4462626;32;35581;-72
2023/10/06 04:58:33;;;;;;;;;;;;;;;21.37;38.02;100802.84;4474182;32;34144;-73
2023/10/06 05:01:00;;;;;;;;;;;;;;;21.11;38.37;100809.41;4476305;32;33672;-73
2023/10/06 05:03:28;;;;;;;;;;;;;;;21.04;38.60;100810.16;4477251;32;33786;-73
2023/10/06 05:05:55;;;;;;;;;;;;;;;21.45;37.82;100807.38;4473377;32;34190;-73
2023/10/06 05:08:24;;;;;;;;;;;;;;;21.36;37.89;100803.72;4478903;32;33669;-71
2023/10/06 05:10:52;;;;;;;;;;;;;;;21.11;38.44;100812.03;4471631;32;34995;-71
2023/10/06 05:13:23;;;;;;;;;;;;;;;21.69;37.26;100812.16;4474245;32;33871;-72
2023/10/06 05:15:51;;;;;;;;;;;;;;;21.52;37.48;100809.28;4453464;32;34614;-71
2023/10/06 05:18:19;;;;;;;;;;;;;;;21.64;37.08;100817.38;4477567;32;34253;-71
2023/10/06 05:20:46;;;;;;;;;;;;;;;21.69;37.02;100828.88;4460520;32;31177;-72
2023/10/06 05:23:17;;;;;;;;;;;;;;;22.12;36.28;100832.16;4479555;32;33950;-72
2023/10/06 05:25:45;;;;;;;;;;;;;;;21.98;36.40;100836.31;4477528;32;34765;-73
2023/10/06 05:28:16;;;;;;;;;;;;;;;21.77;36.90;100839.56;4482340;32;34215;-70
2023/10/06 05:30:44;;;;;;;;;;;;;;;21.83;36.79;100841.38;4474540;32;33624;-70
2023/10/06 05:33:14;;;;;;;;;;;;;;;21.94;36.77;100845.06;4445277;32;32350;-71
2023/10/06 05:35:42;;;;;;;;;;;;;;;21.75;37.07;100852.72;4480919;32;34157;-72
2023/10/06 05:38:13;;;;;;;;;;;;;;;21.52;37.53;100854.09;4474262;32;34174;-70
2023/10/06 05:40:41;;;;;;;;;;;;;;;21.21;38.37;100861.41;4479115;32;33492;-72
2023/10/06 05:43:11;;;;;;;;;;;;;;;21.37;38.08;100858.19;4458400;32;34626;-72
2023/10/06 05:45:39;;;;;;;;;;;;;;;21.23;38.53;100864.97;4469376;32;33676;-71
2023/10/06 05:48:11;;;;;;;;;;;;;;;21.09;38.71;100871.72;4457879;32;34387;-71
2023/10/06 05:50:40;;;;;;;;;;;;;;;21.41;38.14;100877.56;4471766;32;34144;-70
2023/10/06 05:53:12;;;;;;;;;;;;;;;21.52;38.06;100881.34;4459264;32;34046;-73
2023/10/06 05:55:42;;;;;;;;;;;;;;;21.72;37.41;100876.38;4477519;32;34806;-74
2023/10/06 05:58:14;;;;;;;;;;;;;;;21.29;38.23;100880.00;4473130;32;34193;-71
2023/10/06 06:00:50;;;;;;;;;;;;;;;21.53;37.99;100890.13;4473905;32;34015;-71
2023/10/06 06:03:23;;;;;;;;;;;;;;;21.65;37.77;100887.69;4466254;32;34165;-71
2023/10/06 06:05:57;;;;;;;;;;;;;;;21.69;37.84;100889.53;4459321;32;33871;-73
2023/10/06 06:08:25;;;;;;;;;;;;;;;21.79;37.59;100888.81;4469636;32;34691;-71
2023/10/06 06:10:52;;;;;;;;;;;;;;;21.87;37.24;100890.69;4473388;32;33562;-71
2023/10/06 06:13:23;;;;;;;;;;;;;;;21.71;37.95;100895.72;4451318;32;33961;-71
2023/10/06 06:15:50;;;;;;;;;;;;;;;21.96;37.41;100881.19;4470516;32;33193;-74
2023/10/06 06:18:18;;;;;;;;;;;;;;;21.90;37.52;100890.72;4475773;32;34763;-72
2023/10/06 06:20:46;;;;;;;;;;;;;;;21.80;37.78;100887.06;4467875;32;33212;-74
2023/10/06 06:23:16;;;;;;;;;;;;;;;21.85;37.59;100898.56;4478056;32;33897;-72
2023/10/06 06:25:46;;;;;;;;;;;;;;;21.89;37.53;100904.78;4482854;32;34057;-73
2023/10/06 06:28:14;;;;;;;;;;;;;;;21.85;37.69;100892.44;4471785;32;34165;-73
2023/10/06 06:30:42;;;;;;;;;;;;;;;21.61;37.93;100888.50;4476872;32;34014;-70
2023/10/06 06:33:12;;;;;;;;;;;;;;;21.84;37.75;100890.63;4476848;32;34743;-70
2023/10/06 06:35:40;;;;;;;;;;;;;;;21.95;37.45;100902.25;4482602;32;34206;-73
2023/10/06 06:38:12;;;;;;;;;;;;;;;21.59;38.10;100896.41;4469069;32;33714;-73
2023/10/06 06:40:40;;;;;;;;;;;;;;;22.01;37.69;100915.53;4455035;32;33495;-71
2023/10/06 06:43:09;;;;;;;;;;;;;;;22.21;37.39;100912.31;4460477;32;33939;-71
2023/10/06 06:45:41;;;;;;;;;;;;;;;22.13;37.39;100904.28;4474748;32;34123;-72
2023/10/06 06:48:16;;;;;;;;;;;;;;;22.08;37.59;100924.41;4478520;32;35108;-72
2023/10/06 06:50:44;;;;;;;;;;;;;;;22.31;36.81;100920.44;4476019;32;34066;-74
2023/10/06 06:53:11;;;;;;;;;;;;;;;22.07;37.30;100931.44;4472414;32;33991;-71
2023/10/06 06:55:40;;;;;;;;;;;;;;;22.14;37.20;100938.59;4476438;32;33980;-71
2023/10/06 06:58:11;;;;;;;;;;;;;;;21.94;37.33;100934.75;4471491;32;33542;-70
2023/10/06 07:00:39;;;;;;;;;;;;;;;21.95;37.57;100936.53;4461186;32;33235;-71
2023/10/06 07:03:07;;;;;;;;;;;;;;;22.02;37.47;100938.44;4478127;32;33816;-71
2023/10/06 07:05:35;;;;;;;;;;;;;;;21.98;37.65;100941.84;4472367;32;34339;-70
2023/10/06 07:08:05;;;;;;;;;;;;;;;22.49;36.84;100940.91;4470962;32;33580;-71
2023/10/06 07:10:33;;;;;;;;;;;;;;;22.19;37.54;100941.31;4468882;32;32959;-71
2023/10/06 07:13:00;;;;;;;;;;;;;;;22.42;37.32;100943.44;4477466;32;34025;-74
2023/10/06 07:15:29;;;;;;;;;;;;;;;22.75;36.51;100945.66;4474419;32;34067;-72
2023/10/06 07:17:57;;;;;;;;;;;;;;;22.36;37.21;100939.84;4457434;32;34010;-72
2023/10/06 07:20:27;;;;;;;;;;;;;;;22.52;37.04;100940.97;4480189;32;33373;-73
2023/10/06 07:22:56;;;;;;;;;;;;;;;22.93;36.49;100940.62;4459627;32;34161;-72
2023/10/06 07:25:26;;;;;;;;;;;;;;;22.48;37.15;100947.03;4473547;32;34591;-72
2023/10/06 07:27:55;;;;;;;;;;;;;;;22.78;36.54;100948.34;4476399;32;33992;-71
2023/10/06 07:30:26;;;;;;;;;;;;;;;22.50;37.16;100953.28;4473464;32;32987;-73
2023/10/06 07:32:57;;;;;;;;;;;;;;;22.71;37.08;100955.28;4468653;32;33561;-72
2023/10/06 07:35:36;;;;;;;;;;;;;;;23.22;35.56;100950.69;4466435;32;34178;-71
2023/10/06 07:38:04;;;;;;;;;;;;;;;23.09;36.11;100954.06;4459004;32;34063;-71
2023/10/06 07:40:36;;;;;;;;;;;;;;;23.43;35.58;100952.69;4470665;32;32680;-72
2023/10/06 07:43:05;;;;;;;;;;;;;;;23.44;35.60;100962.37;4469345;32;35402;-71
2023/10/06 07:45:33;;;;;;;;;;;;;;;23.53;35.74;100964.25;4475977;32;34618;-71
2023/10/06 07:48:00;;;;;;;;;;;;;;;23.78;35.34;100964.47;4478003;32;33963;-70
2023/10/06 07:50:29;;;;;;;;;;;;;;;24.04;34.59;100960.31;4477951;32;32463;-72
2023/10/06 07:52:57;;;;;;;;;;;;;;;24.19;34.46;100963.97;4464915;32;32325;-72
2023/10/06 07:55:24;;;;;;;;;;;;;;;24.06;34.82;100962.97;4466277;32;35005;-71
2023/10/06 07:57:51;;;;;;;;;;;;;;;24.34;34.50;100961.44;4476179;32;32640;-72
2023/10/06 08:00:29;;;;;;;;;;;;;;;24.18;34.46;100962.19;4474036;32;31866;-70
2023/10/06 08:02:59;;;;;;;;;;;;;;;24.32;34.35;100968.50;4470510;32;35078;-73
2023/10/06 08:05:27;;;;;;;;;;;;;;;23.73;35.42;100969.72;4472615;32;34842;-72
2023/10/06 08:07:58;;;;;;;;;;;;;;;24.32;34.25;100976.44;4468124;32;34192;-72
2023/10/06 08:10:29;;;;;;;;;;;;;;;24.31;33.92;100969.34;4475676;32;33057;-71
2023/10/06 08:13:01;;;;;;;;;;;;;;;24.43;33.85;100969.41;4478734;32;35369;-74
2023/10/06 08:15:32;;;;;;;;;;;;;;;24.25;34.39;100975.50;4477797;32;34207;-71
2023/10/06 08:18:00;;;;;;;;;;;;;;;24.27;34.58;100978.16;4466729;32;35013;-72
2023/10/06 08:20:30;;;;;;;;;;;;;;;24.61;34.20;100973.09;4476514;32;34107;-74
2023/10/06 08:22:58;;;;;;;;;;;;;;;24.44;34.26;100984.44;4475378;32;34759;-73
2023/10/06 08:25:26;;;;;;;;;;;;;;;24.60;34.20;100976.63;4472967;32;34058;-73
2023/10/06 08:27:55;;;;;;;;;;;;;;;24.79;33.75;100978.50;4460972;32;32565;-74
2023/10/06 08:30:22;;;;;;;;;;;;;;;25.04;33.18;100979.50;4464653;32;34196;-74
2023/10/06 08:32:52;;;;;;;6.95;2.47;;;;;;;24.84;33.44;100987.38;4456194;32;32393;-73
2023/10/06 08:35:21;;;;;;;;;;;;;;;24.81;33.59;100987.34;4469737;32;34601;-73
2023/10/06 08:37:51;;;;;;;6.75;2.53;;;;;;;25.00;33.11;100985.69;4472081;32;33895;-72
2023/10/06 08:40:22;;;;;;;;;;;;;;;24.96;33.48;100975.94;4480516;32;33570;-71
2023/10/06 08:42:53;;;;;;;;;;;;;;;25.17;33.31;100983.09;4475468;32;34744;-72
2023/10/06 08:45:23;;;;;;;6.80;2.53;;;;;;;25.52;32.92;100987.66;4472456;32;34811;-73
2023/10/06 08:47:53;;;;;;;;;;;;;;;25.63;32.63;100980.63;4477905;32;33233;-73
2023/10/06 08:50:25;;;;;;;6.32;2.40;;;;;;;25.82;32.02;100985.94;4476197;32;32884;-71
2023/10/06 08:52:53;;;;;;;;;;;;;;;25.82;32.02;100985.94;4458235;32;34024;-73
2023/10/06 08:55:21;;;;;;;;;;;;;;;25.97;31.99;100985.97;4473435;32;34875;-73
2023/10/06 08:57:50;;;;;;;7.68;2.53;;;;;;;26.55;31.36;100978.84;4479087;32;34107;-73
2023/10/06 09:00:18;;;;;;;;;;;;;;;26.77;30.65;100974.38;4476893;32;33776;-71
2023/10/06 09:02:46;;;;;;;;;;;;;;;27.12;30.14;100982.25;4473325;32;34987;-73
2023/10/06 09:05:14;;;;;;;6.87;2.50;;;;;;;27.38;29.46;100983.91;4469462;32;34229;-72
2023/10/06 09:08:07;;;;;;;8.13;2.50;;;;;;;27.94;28.42;100979.13;4478811;32;33574;-72
2023/10/06 09:10:36;;;;;;;4.65;2.10;;;;;;;28.03;28.17;100979.06;4458409;32;33130;-72
2023/10/06 09:13:15;;;;;;;;;;;;;;;28.62;27.48;100982.06;4458535;32;33679;-73
2023/10/06 09:15:54;;;;;;;;;;;;;;;28.82;27.18;100982.72;4472455;32;34832;-70
2023/10/06 09:18:27;;;;;;;6.18;2.30;;;;;;;29.20;26.25;100973.38;4471465;32;34114;-72
2023/10/06 09:20:58;;;;;;;6.40;2.30;;;;;;;29.50;26.12;100971.19;4473881;32;32886;-71
2023/10/06 09:23:30;;;;;;;6.90;2.22;;;;;;;29.48;26.95;100975.66;4454001;32;33950;-70
2023/10/06 09:25:59;;;;;;;4.95;1.85;;;;;;;29.72;25.82;100974.44;4472314;32;34219;-70
2023/10/06 09:28:28;;;;;;;;;;;;;;;30.33;24.20;100975.22;4455417;32;34055;-72
2023/10/06 09:31:01;;;;;;;;;;;;;;;30.42;23.41;100976.81;4456315;32;33985;-71
2023/10/06 09:33:35;;;;;;;;;;;;;;;30.07;23.88;100982.78;4482146;32;34920;-72
2023/10/06 09:36:11;;;;;;;;;;;;;;;29.93;23.74;100975.00;4469755;32;33689;-73
2023/10/06 09:38:39;;;;;;;;;;;;;;;29.54;23.61;100966.69;4477311;32;34120;-73
2023/10/06 09:41:09;;;;;;;;;;;;;;;28.47;24.69;100960.84;4474212;32;33231;-72
2023/10/06 09:43:40;;;;;;;;;;;;;;;28.44;25.21;100957.34;4474422;32;33651;-71
2023/10/06 09:46:16;;;;;;;;;;;;;;;27.46;26.70;100961.66;4457097;32;33874;-72
2023/10/06 09:48:44;;;;;;;;;;;;;;;27.97;25.87;100957.78;4478079;32;33729;-70
2023/10/06 09:51:12;;;;;;;;;;;;;;;28.12;26.09;100956.75;4473401;32;33766;-72
2023/10/06 09:53:43;;;;;;;;;;;;;;;29.46;25.21;100953.44;4470267;32;33914;-71
2023/10/06 09:56:12;;;;;;;;;;;;;;;29.69;24.38;100950.44;4473956;32;34888;-74
2023/10/06 09:58:42;;;;;;;;;;;;;;;29.49;24.43;100953.38;4474577;32;33790;-74
2023/10/06 10:01:12;;;;;;;;;;;;;;;29.70;23.91;100949.50;4456701;32;33135;-74
2023/10/06 10:03:41;;;;;;;;;;;;;;;29.71;23.48;100945.03;4473593;32;34365;-74
2023/10/06 10:06:14;;;;;;;;;;;;;;;29.55;24.04;100942.66;4474092;32;34200;-72
2023/10/06 10:08:41;;;;;;;;;;;;;;;29.53;24.49;100944.41;4463427;32;34977;-73
2023/10/06 10:11:16;;;;;;;;;;;;;;;29.70;24.56;100940.62;4479397;32;33489;-71
2023/10/06 10:14:03;;;;;;;;;;;;;;;30.48;23.08;100935.72;4462920;32;34889;-73
2023/10/06 10:16:33;;;;;;;;;;;;;;;30.31;23.40;100928.94;4476462;32;33973;-73
2023/10/06 10:19:07;;;;;;;;;;;;;;;29.87;23.73;100922.56;4475442;32;33233;-73
2023/10/06 10:21:35;;;;;;;;;;;;;;;29.98;23.45;100925.94;4456908;32;33798;-71
2023/10/06 10:24:05;;;;;;;;;;;;;;;29.68;24.39;100913.06;4465380;32;34932;-75
2023/10/06 10:26:53;;;;;;;;;;;;;;;30.39;23.48;100907.41;4454931;32;32345;-75
2023/10/06 10:29:24;;;;;;;;;;;;;;;30.30;23.21;100904.87;4481508;32;33828;-76
2023/10/06 10:31:52;;;;;;;;;;;;;;;29.91;23.81;100905.56;4455132;32;32495;-72
2023/10/06 10:34:34;;;;;;;;;;;;;;;29.81;23.92;100901.31;4469011;32;33908;-75
2023/10/06 10:37:05;;;;;;;;;;;;;;;29.39;23.63;100895.72;4479507;32;33865;-75
2023/10/06 10:39:59;;;;;;;;;;;;;;;29.47;24.21;100891.13;4471692;32;33971;-74
2023/10/06 10:42:39;;;;;;;;;;;;;;;29.92;23.11;100888.66;4475466;32;33088;-70
2023/10/06 10:45:26;;;;;;;;;;;;;;;30.43;22.80;100881.50;4479895;32;34366;-74
2023/10/06 10:47:55;;;;;;;;;;;;;;;30.46;22.91;100876.06;4468957;32;34306;-73
2023/10/06 10:50:26;;;;;;;;;;;;;;;30.52;22.85;100873.25;4469037;32;34327;-74
2023/10/06 10:52:53;;;;;;;;;;;;;;;30.48;22.70;100871.56;4470984;32;33353;-72
2023/10/06 10:55:26;;;;;;;;;;;;;;;30.59;22.98;100874.91;4481582;32;33977;-72
2023/10/06 10:57:54;;;;;;;;;;;;;;;30.88;22.33;100874.25;4458299;32;33859;-72
2023/10/06 11:00:21;;;;;;;;;;;;;;;30.63;22.70;100870.38;4464313;32;34391;-70
2023/10/06 11:02:49;;;;;;;;;;;;;;;30.51;23.01;100866.16;4477615;32;33262;-73
2023/10/06 11:05:20;;;;;;;;;;;;;;;29.70;24.00;100871.19;4472152;32;35018;-72
2023/10/06 11:07:57;;;;;;;;;;;;;;;29.96;23.65;100863.63;4481530;32;33759;-71
2023/10/06 11:10:28;;;;;;;;;;;;;;;30.45;23.16;100856.47;4476539;32;34835;-71
2023/10/06 11:13:15;;;;;;;;;;;;;;;30.32;23.37;100861.19;4462497;32;33223;-74
2023/10/06 11:15:43;;;;;;;3.58;1.10;;;;;;;30.45;22.94;100861.81;4483299;32;34205;-72
2023/10/06 11:18:13;;;;;;;5.07;1.35;;;;;;;30.68;23.37;100857.78;4475156;32;33667;-73
2023/10/06 11:20:40;;;;;;;;;;;;;;;30.86;23.54;100856.50;4478003;32;33201;-74
2023/10/06 11:23:08;;;;;;;;;;;;;;;30.83;23.37;100856.56;4481907;32;34237;-71
2023/10/06 11:25:45;;;;;;;;;;;;;;;30.72;23.56;100855.00;4459132;32;34338;-72
2023/10/06 11:28:14;;;;;;;;;;;;;;;31.37;22.73;100856.25;4480863;32;34395;-75
2023/10/06 11:30:42;;;;;;;;;;;;;;;31.44;22.63;100854.28;4478635;32;33964;-72
2023/10/06 11:33:11;;;;;;;;;;;;;;;31.67;21.93;100851.03;4474879;32;33138;-75
2023/10/06 11:35:40;;;;;;;;;;;;;;;31.76;21.32;100850.81;4483486;32;34100;-74
2023/10/06 11:38:11;;;;;;;;;;;;;;;32.24;21.56;100858.47;4475248;32;34186;-72
2023/10/06 11:40:40;;;;;;;;;;;;;;;32.07;21.48;100850.87;4464110;32;34073;-71
2023/10/06 11:43:12;;;;;;;;;;;;;;;31.71;22.33;100858.09;4481571;32;33359;-72
2023/10/06 11:45:41;;;;;;;;;;;;;;;31.94;21.83;100850.31;4472330;32;34153;-74
2023/10/06 11:48:24;;;;;;;;;;;;;;;31.37;22.10;100850.87;4480946;32;33852;-73
2023/10/06 11:50:59;;;;;;;;;;;;;;;31.38;22.31;100841.91;4479097;32;34460;-75
2023/10/06 11:53:26;;;;;;;;;;;;;;;32.09;21.43;100829.41;4483883;32;34423;-72
2023/10/06 11:56:07;;;;;;;;;;;;;;;31.95;21.61;100824.41;4473254;32;34763;-71
2023/10/06 11:58:37;;;;;;;;;;;;;;;31.30;22.16;100827.84;4468035;32;32557;-72
2023/10/06 12:01:05;;;;;;;;;;;;;;;31.48;22.24;100823.84;4460702;32;34272;-72
2023/10/06 12:03:36;;;;;;;;;;;;;;;31.24;22.78;100825.34;4469036;32;33458;-70
2023/10/06 12:06:03;;;;;;;;;;;;;;;31.18;22.58;100815.66;4474136;32;34242;-75
2023/10/06 12:08:30;;;;;;;;;;;;;;;31.15;22.52;100811.22;4476516;32;34244;-76
2023/10/06 12:11:03;;;;;;;;;;;;;;;31.56;22.18;100789.72;4478514;32;34559;-72
2023/10/06 12:13:32;;;;;;;;;;;;;;;31.53;21.82;100774.62;4472975;32;34059;-71
2023/10/06 12:15:59;;;;;;;;;;;;;;;30.92;22.71;100784.16;4473742;32;34096;-73
2023/10/06 12:18:32;;;;;;;;;;;;;;;30.33;23.56;100782.78;4454742;32;34724;-72
2023/10/06 12:21:00;;;;;;;;;;;;;;;30.27;24.06;100793.56;4468914;32;33921;-69
2023/10/06 12:23:27;;;;;;;;;;;;;;;30.26;23.89;100778.44;4480577;32;33221;-73
2023/10/06 12:25:55;;;;;;;;;;;;;;;30.16;24.27;100776.88;4467685;32;34767;-75
2023/10/06 12:28:25;;;;;;;;;;;;;;;30.75;24.72;100774.72;4473644;32;34091;-71
2023/10/06 12:30:54;;;;;;;;;;;;;;;30.47;24.37;100778.94;4483049;32;33888;-74
2023/10/06 12:33:21;;;;;;;;;;;;;;;30.57;24.67;100770.66;4469381;32;33922;-72
2023/10/06 12:35:52;;;;;;;;;;;;;;;30.85;23.98;100769.13;4482061;32;33933;-72
2023/10/06 12:38:20;;;;;;;;;;;;;;;31.41;22.82;100774.03;4465585;32;34132;-71
2023/10/06 12:40:48;;;;;;;;;;;;;;;31.62;22.45;100778.88;4482172;32;34358;-70
2023/10/06 12:43:24;;;;;;;;;;;;;;;31.43;22.95;100773.09;4473370;32;33276;-73
2023/10/06 12:45:52;;;;;;;;;;;;;;;30.84;23.20;100760.22;4470102;32;34986;-71
2023/10/06 12:48:19;;;;;;;;;;;;;;;30.75;22.86;100758.66;4471334;32;35019;-73
2023/10/06 12:50:47;;;;;;;;;;;;;;;30.85;22.89;100763.78;4469799;32;33966;-72
2023/10/06 12:53:14;;;;;;;;;;;;;;;31.55;22.13;100759.37;4469391;32;33469;-74
2023/10/06 12:55:42;;;;;;;;;;;;;;;31.66;21.33;100753.75;4482482;32;34984;-73
2023/10/06 12:58:11;;;;;;;;;;;;;;;31.34;22.33;100762.59;4456478;32;33807;-73
2023/10/06 13:00:39;;;;;;;;;;;;;;;31.30;22.00;100766.28;4476242;32;34538;-72
2023/10/06 13:03:15;;;;;;;;;;;;;;;30.58;22.60;100771.56;4480982;32;33153;-72
2023/10/06 13:05:43;;;;;;;;;;;;;;;30.07;23.25;100761.03;4472943;32;35364;-74
2023/10/06 13:08:20;;;;;;;;;;;;;;;30.65;23.03;100767.78;4476365;32;33932;-73
2023/10/06 13:10:49;;;;;;;;;;;;;;;31.08;22.23;100766.84;4456768;32;34186;-74